createdAt,value
2019-04-19T00:02:25.895Z,7.67
2019-04-19T00:06:42.694Z,9.10
2019-04-19T00:10:58.034Z,11.00
2019-04-19T00:15:01.467Z,8.30
2019-04-19T00:19:31.497Z,10.57
2019-04-19T00:23:31.134Z,8.93
2019-04-19T00:27:39.590Z,10.90
2019-04-19T00:31:59.202Z,8.27
2019-04-19T00:35:53.851Z,8.67
2019-04-19T00:40:27.835Z,7.17
2019-04-19T00:44:51.715Z,8.70
2019-04-19T00:48:58.511Z,13.07
2019-04-19T00:53:07.899Z,9.93
2019-04-19T00:57:14.715Z,9.47
2019-04-19T01:01:21.567Z,9.60
2019-04-19T01:05:29.180Z,8.80
2019-04-19T01:09:48.601Z,9.87
2019-04-19T01:14:01.350Z,8.47
2019-04-19T01:18:15.495Z,8.40
2019-04-19T01:22:15.192Z,8.40
2019-04-19T01:26:19.983Z,12.43
2019-04-19T01:30:34.902Z,10.47
2019-04-19T01:34:39.870Z,8.67
2019-04-19T01:38:58.099Z,9.07
2019-04-19T01:47:51.526Z,9.45
2019-04-19T01:52:37.055Z,8.53
2019-04-19T01:56:20.434Z,9.30
2019-04-19T02:00:38.083Z,10.10
2019-04-19T02:04:41.297Z,10.70
2019-04-19T02:08:54.155Z,8.53
2019-04-19T02:13:12.087Z,9.17
2019-04-19T02:17:14.594Z,9.70
2019-04-19T02:21:27.691Z,10.33
2019-04-19T02:25:33.905Z,7.57
2019-04-19T02:29:49.823Z,8.00
2019-04-19T02:34:32.052Z,8.10
2019-04-19T02:38:40.099Z,7.93
2019-04-19T02:47:00.228Z,8.10
2019-04-19T02:55:14.555Z,8.33
2019-04-19T02:59:56.977Z,9.50
2019-04-19T03:04:06.755Z,8.70
2019-04-19T03:07:40.618Z,8.20
2019-04-19T03:12:00.877Z,9.03
2019-04-19T03:16:29.552Z,7.80
2019-04-19T03:20:28.726Z,9.33
2019-04-19T03:24:42.228Z,8.80
2019-04-19T03:28:40.509Z,13.10
2019-04-19T03:33:11.362Z,9.30
2019-04-19T03:37:16.425Z,8.00
2019-04-19T03:45:35.349Z,12.95
2019-04-19T03:49:50.626Z,9.20
2019-04-19T03:54:11.655Z,13.30
2019-04-19T03:57:58.195Z,10.70
2019-04-19T04:02:02.954Z,11.67
2019-04-19T04:06:19.617Z,9.57
2019-04-19T04:10:37.684Z,9.50
2019-04-19T04:15:02.714Z,7.75
2019-04-19T04:18:59.778Z,9.23
2019-04-19T04:23:15.476Z,9.63
2019-04-19T04:27:31.585Z,10.25
2019-04-19T04:31:44.619Z,8.23
2019-04-19T04:35:53.193Z,9.40
2019-04-19T04:39:51.403Z,8.40
2019-04-19T04:44:21.385Z,9.40
2019-04-19T04:48:43.481Z,10.90
2019-04-19T04:52:43.918Z,9.47
2019-04-19T04:57:17.178Z,8.03
2019-04-19T05:01:33.260Z,10.53
2019-04-19T05:05:49.665Z,8.20
2019-04-19T05:09:59.215Z,6.97
2019-04-19T05:14:11.309Z,6.73
2019-04-19T05:18:26.260Z,7.47
2019-04-19T05:22:31.662Z,7.47
2019-04-19T05:30:46.903Z,9.20
2019-04-19T05:35:06.982Z,7.35
2019-04-19T05:39:26.370Z,8.13
2019-04-19T05:43:54.057Z,8.37
2019-04-19T05:47:40.629Z,8.97
2019-04-19T05:51:55.188Z,7.63
2019-04-19T05:55:50.306Z,13.77
2019-04-19T06:00:16.097Z,9.27
2019-04-19T06:04:26.342Z,10.27
2019-04-19T06:08:26.493Z,9.30
2019-04-19T06:12:35.520Z,9.60
2019-04-19T06:17:11.307Z,9.80
2019-04-19T06:21:27.690Z,10.80
2019-04-19T06:25:46.115Z,13.33
2019-04-19T06:29:58.879Z,9.73
2019-04-19T06:34:04.723Z,9.53
2019-04-19T06:37:54.296Z,9.67
2019-04-19T06:42:07.738Z,8.47
2019-04-19T06:46:29.101Z,9.20
2019-04-19T06:50:34.053Z,8.65
2019-04-19T06:58:55.821Z,9.47
2019-04-19T07:02:56.247Z,8.83
2019-04-19T07:07:23.550Z,9.97
2019-04-19T07:11:43.110Z,9.00
2019-04-19T07:15:49.989Z,9.17
2019-04-19T07:19:56.226Z,8.47
2019-04-19T07:24:14.956Z,8.57
2019-04-19T07:28:23.986Z,8.50
2019-04-19T07:32:37.226Z,11.23
2019-04-19T07:36:57.684Z,9.55
2019-04-19T07:41:13.681Z,8.53
2019-04-19T07:45:10.769Z,8.90
2019-04-19T07:49:17.385Z,13.00
2019-04-19T07:53:32.043Z,9.03
2019-04-19T07:58:16.823Z,11.90
2019-04-19T08:06:28.032Z,7.85
2019-04-19T08:10:42.269Z,7.40
2019-04-19T08:14:48.014Z,7.07
2019-04-19T08:31:07.871Z,7.17
2019-04-19T08:35:17.324Z,7.30
2019-04-19T08:39:46.140Z,7.20
2019-04-19T08:43:50.921Z,6.80
2019-04-19T08:48:11.978Z,6.83
2019-04-19T08:52:25.147Z,6.00
2019-04-19T08:56:42.176Z,7.13
2019-04-19T09:01:03.515Z,6.90
2019-04-19T09:05:09.334Z,7.97
2019-04-19T09:09:27.997Z,6.53
2019-04-19T09:13:35.410Z,6.40
2019-04-19T09:18:09.262Z,8.77
2019-04-19T09:21:50.502Z,7.30
2019-04-19T09:26:03.084Z,6.40
2019-04-19T09:30:22.286Z,6.47
2019-04-19T09:34:16.829Z,5.70
2019-04-19T09:38:39.733Z,5.40
2019-04-19T09:42:46.395Z,6.73
2019-04-19T09:46:44.835Z,5.73
2019-04-19T09:51:07.488Z,6.47
2019-04-19T09:55:26.813Z,6.10
2019-04-19T09:59:24.054Z,5.80
2019-04-19T10:03:34.707Z,5.97
2019-04-19T10:07:36.790Z,6.20
2019-04-19T10:11:46.474Z,5.20
2019-04-19T10:16:00.629Z,5.03
2019-04-19T10:20:10.932Z,5.03
2019-04-19T10:24:22.604Z,5.07
2019-04-19T10:28:30.655Z,6.33
2019-04-19T10:32:40.311Z,5.20
2019-04-19T10:36:51.310Z,5.53
2019-04-19T10:41:01.775Z,4.20
2019-04-19T10:45:12.217Z,5.57
2019-04-19T10:49:32.321Z,5.27
2019-04-19T10:53:32.466Z,5.00
2019-04-19T10:57:43.105Z,5.00
2019-04-19T11:01:52.216Z,5.87
2019-04-19T11:06:01.138Z,4.87
2019-04-19T11:10:11.691Z,4.87
2019-04-19T11:14:21.845Z,5.10
2019-04-19T11:18:31.777Z,4.03
2019-04-19T11:22:41.784Z,4.73
2019-04-19T11:26:50.898Z,5.33
2019-04-19T11:31:08.910Z,3.97
2019-04-19T11:35:19.234Z,4.73
2019-04-19T11:39:28.333Z,4.40
2019-04-19T11:43:37.773Z,4.83
2019-04-19T11:47:47.369Z,4.30
2019-04-19T11:51:56.478Z,3.40
2019-04-19T11:56:28.628Z,4.90
2019-04-19T12:00:40.378Z,4.23
2019-04-19T12:04:50.296Z,3.63
2019-04-19T12:09:00.456Z,4.20
2019-04-19T12:13:09.515Z,4.13
2019-04-19T12:17:18.521Z,4.40
2019-04-19T12:21:27.581Z,4.40
2019-04-19T12:25:37.558Z,4.17
2019-04-19T12:29:49.549Z,4.40
2019-04-19T12:33:57.620Z,4.50
2019-04-19T12:38:08.007Z,3.93
2019-04-19T12:42:31.698Z,4.30
2019-04-19T12:46:41.359Z,4.20
2019-04-19T12:50:51.604Z,4.67
2019-04-19T12:55:01.937Z,4.07
2019-04-19T12:59:11.611Z,5.10
2019-04-19T13:03:39.552Z,4.60
2019-04-19T13:07:49.313Z,4.90
2019-04-19T13:11:58.948Z,4.20
2019-04-19T13:16:08.343Z,3.90
2019-04-19T13:20:24.207Z,4.80
2019-04-19T13:24:28.725Z,4.50
2019-04-19T13:28:39.483Z,4.60
2019-04-19T13:32:49.445Z,4.97
2019-04-19T13:37:23.440Z,5.00
2019-04-19T13:41:43.054Z,4.70
2019-04-19T13:45:52.691Z,5.10
2019-04-19T13:50:14.548Z,5.20
2019-04-19T13:54:12.554Z,7.00
2019-04-19T13:58:22.050Z,5.40
2019-04-19T14:02:31.438Z,4.30
2019-04-19T14:06:40.667Z,5.20
2019-04-19T14:10:50.898Z,5.30
2019-04-19T14:15:00.497Z,5.30
2019-04-19T14:19:11.395Z,5.03
2019-04-19T14:23:21.665Z,5.97
2019-04-19T14:27:31.162Z,5.80
2019-04-19T14:31:40.143Z,5.53
2019-04-19T14:35:50.167Z,6.70
2019-04-19T14:40:00.501Z,5.60
2019-04-19T14:44:09.576Z,6.00
2019-04-19T14:48:25.823Z,5.30
2019-04-19T14:52:30.125Z,7.90
2019-04-19T14:56:39.268Z,5.20
2019-04-19T15:01:08.768Z,5.30
2019-04-19T15:05:31.932Z,6.50
2019-04-19T15:09:41.667Z,5.97
2019-04-19T15:13:52.623Z,5.50
2019-04-19T15:18:02.157Z,4.83
2019-04-19T15:22:12.285Z,5.10
2019-04-19T15:26:22.600Z,5.07
2019-04-19T15:30:32.883Z,4.80
2019-04-19T15:34:43.469Z,5.50
2019-04-19T15:38:53.383Z,5.37
2019-04-19T15:43:03.182Z,5.30
2019-04-19T15:47:12.661Z,4.90
2019-04-19T15:51:27.117Z,5.27
2019-04-19T15:55:32.324Z,5.10
2019-04-19T15:59:41.338Z,5.63
2019-04-19T16:03:54.293Z,5.30
2019-04-19T16:08:12.459Z,4.87
2019-04-19T16:12:31.667Z,5.47
2019-04-19T16:16:40.609Z,5.27
2019-04-19T16:20:50.853Z,4.77
2019-04-19T16:25:01.095Z,4.60
2019-04-19T16:29:17.073Z,4.90
2019-04-19T16:33:22.019Z,5.10
2019-04-19T16:37:31.164Z,6.73
2019-04-19T16:41:40.695Z,5.30
2019-04-19T16:46:01.468Z,4.27
2019-04-19T16:50:00.577Z,5.10
2019-04-19T16:54:10.239Z,5.80
2019-04-19T16:58:20.783Z,4.93
2019-04-19T17:02:31.076Z,5.03
2019-04-19T17:06:40.549Z,5.63
2019-04-19T17:10:49.519Z,5.60
2019-04-19T17:15:08.595Z,5.00
2019-04-19T17:19:26.669Z,5.43
2019-04-19T17:23:37.027Z,4.70
2019-04-19T17:27:47.130Z,4.90
2019-04-19T17:31:56.723Z,4.83
2019-04-19T17:36:06.122Z,5.27
2019-04-19T17:40:16.240Z,6.33
2019-04-19T17:44:25.858Z,5.03
2019-04-19T17:48:34.742Z,6.67
2019-04-19T17:52:44.395Z,5.70
2019-04-19T17:56:53.385Z,7.20
2019-04-19T18:01:02.632Z,20.70
2019-04-19T18:05:11.894Z,14.67
2019-04-19T18:09:22.838Z,10.50
2019-04-19T18:13:31.443Z,8.00
2019-04-19T18:17:40.343Z,17.93
2019-04-19T18:21:50.082Z,84.87
2019-04-19T18:25:59.212Z,71.65
2019-04-19T18:30:11.759Z,110.17
2019-04-19T18:34:39.910Z,33.57
2019-04-19T18:38:50.423Z,69.50
2019-04-19T18:43:16.244Z,60.27
2019-04-19T18:51:25.849Z,14.30
2019-04-19T18:55:36.255Z,41.77
2019-04-19T18:59:40.536Z,13.57
2019-04-19T19:03:50.105Z,9.83
2019-04-19T19:08:03.547Z,7.73
2019-04-19T19:12:13.319Z,6.00
2019-04-19T19:16:25.337Z,6.10
2019-04-19T19:20:36.738Z,10.65
2019-04-19T19:25:03.125Z,6.70
2019-04-19T19:33:14.360Z,6.35
2019-04-19T19:42:18.631Z,20.35
2019-04-19T19:45:51.523Z,7.00
2019-04-19T19:50:17.900Z,6.90
2019-04-19T19:58:22.179Z,6.30
2019-04-19T20:02:36.918Z,6.37
2019-04-19T20:06:33.300Z,8.43
2019-04-19T20:10:45.889Z,7.70
2019-04-19T20:14:56.147Z,8.07
2019-04-19T20:19:06.734Z,7.17
2019-04-19T20:23:21.578Z,6.30
2019-04-19T20:27:36.585Z,6.37
2019-04-19T20:31:40.882Z,6.30
2019-04-19T20:35:55.069Z,5.90
2019-04-19T20:40:06.183Z,6.50
2019-04-19T20:44:29.056Z,6.10
2019-04-19T20:48:25.919Z,6.83
2019-04-19T20:52:45.373Z,6.57
2019-04-19T20:57:27.535Z,5.87
2019-04-19T21:01:14.870Z,6.70
2019-04-19T21:05:27.229Z,7.10
2019-04-19T21:09:37.312Z,7.73
2019-04-19T21:13:50.600Z,6.57
2019-04-19T21:17:56.046Z,19.80
2019-04-19T21:22:06.438Z,42.37
2019-04-19T21:26:21.510Z,8.47
2019-04-19T21:30:27.055Z,9.80
2019-04-19T21:34:38.170Z,58.80
2019-04-19T21:38:53.392Z,61.03
2019-04-19T21:42:59.682Z,22.30
2019-04-19T21:51:25.627Z,43.55
2019-04-19T21:55:33.928Z,58.00
2019-04-19T21:59:40.908Z,84.60
2019-04-19T22:12:10.258Z,9.70
2019-04-19T22:16:21.594Z,40.70
2019-04-19T22:33:00.384Z,75.35
2019-04-19T22:37:08.960Z,23.03
2019-04-19T22:41:21.062Z,16.87
2019-04-19T22:45:30.637Z,7.50
2019-04-19T22:49:43.694Z,11.53
2019-04-19T22:53:50.571Z,9.40
2019-04-19T22:58:01.346Z,7.63
2019-04-19T23:02:16.562Z,8.77
2019-04-19T23:06:28.097Z,11.97
